Terminal Aerodrome Forecast
Issued by NWS Sioux Falls, SD

Home | Current Version | Previous Version | Text Only | Print | Product List | Glossary On
Versions: 1 2 3 4 5 6 7 8 9 10 11 12 13
000
FTUS43 KFSD 162100 AAA
TAFSUX
TAF AMD
KSUX 162140Z 1622/1718 31021G34KT P6SM SCT018 OVC060
     FM170000 33021G33KT P6SM SCT015 OVC030
     FM170500 34016G22KT P6SM OVC015
     FM170900 33013KT P6SM SCT015 BKN100=

USA.gov is the U.S. government's official web portal to all federal, state and local government web resources and services.